sensor_id;sensor_type;location;lat;lon;timestamp;P1;durP1;ratioP1;P2;durP2;ratioP2
76795;SDS011;65745;50.278;18.192;2024-03-23T00:52:02;17.50;;;12.10;;
76795;SDS011;65745;50.278;18.192;2024-03-23T00:54:34;19.30;;;13.10;;
76795;SDS011;65745;50.278;18.192;2024-03-23T00:57:05;15.70;;;11.00;;
76795;SDS011;65745;50.278;18.192;2024-03-23T00:59:36;18.90;;;12.50;;
76795;SDS011;65745;50.278;18.192;2024-03-23T01:02:08;22.70;;;14.60;;
76795;SDS011;65745;50.278;18.192;2024-03-23T01:04:39;18.70;;;12.90;;
76795;SDS011;65745;50.278;18.192;2024-03-23T01:07:11;17.40;;;12.00;;
76795;SDS011;65745;50.278;18.192;2024-03-23T01:09:42;16.00;;;11.70;;
76795;SDS011;65745;50.278;18.192;2024-03-23T01:12:14;14.70;;;10.60;;
76795;SDS011;65745;50.278;18.192;2024-03-23T01:14:46;15.00;;;11.40;;
76795;SDS011;65745;50.278;18.192;2024-03-23T01:17:17;15.00;;;11.50;;
76795;SDS011;65745;50.278;18.192;2024-03-23T01:19:49;17.80;;;12.30;;
76795;SDS011;65745;50.278;18.192;2024-03-23T01:22:20;16.40;;;11.50;;
76795;SDS011;65745;50.278;18.192;2024-03-23T01:24:52;14.30;;;11.10;;
76795;SDS011;65745;50.278;18.192;2024-03-23T01:27:24;17.10;;;10.90;;
76795;SDS011;65745;50.278;18.192;2024-03-23T01:29:55;15.30;;;11.20;;
76795;SDS011;65745;50.278;18.192;2024-03-23T01:32:27;15.20;;;10.90;;
76795;SDS011;65745;50.278;18.192;2024-03-23T01:34:58;18.10;;;12.80;;
76795;SDS011;65745;50.278;18.192;2024-03-23T01:37:30;21.30;;;13.00;;
76795;SDS011;65745;50.278;18.192;2024-03-23T01:40:01;17.70;;;11.60;;
76795;SDS011;65745;50.278;18.192;2024-03-23T01:42:34;15.10;;;10.80;;
76795;SDS011;65745;50.278;18.192;2024-03-23T01:45:07;15.70;;;11.40;;
76795;SDS011;65745;50.278;18.192;2024-03-23T01:47:39;15.10;;;10.50;;
76795;SDS011;65745;50.278;18.192;2024-03-23T01:50:11;15.50;;;10.40;;
76795;SDS011;65745;50.278;18.192;2024-03-23T01:52:43;14.80;;;9.60;;
76795;SDS011;65745;50.278;18.192;2024-03-23T01:55:14;23.10;;;14.10;;
76795;SDS011;65745;50.278;18.192;2024-03-23T01:57:46;30.30;;;17.00;;
76795;SDS011;65745;50.278;18.192;2024-03-23T02:00:19;32.20;;;17.40;;
76795;SDS011;65745;50.278;18.192;2024-03-23T02:02:51;27.40;;;15.70;;
76795;SDS011;65745;50.278;18.192;2024-03-23T02:05:23;43.60;;;21.90;;
76795;SDS011;65745;50.278;18.192;2024-03-23T02:07:55;32.40;;;18.00;;
76795;SDS011;65745;50.278;18.192;2024-03-23T02:10:26;30.60;;;17.20;;
76795;SDS011;65745;50.278;18.192;2024-03-23T02:12:58;18.50;;;12.30;;
76795;SDS011;65745;50.278;18.192;2024-03-23T02:15:30;16.40;;;11.30;;
76795;SDS011;65745;50.278;18.192;2024-03-23T02:18:02;18.10;;;11.90;;
76795;SDS011;65745;50.278;18.192;2024-03-23T02:20:34;16.70;;;11.90;;
76795;SDS011;65745;50.278;18.192;2024-03-23T02:23:09;22.40;;;12.90;;
76795;SDS011;65745;50.278;18.192;2024-03-23T02:25:44;21.60;;;15.30;;
76795;SDS011;65745;50.278;18.192;2024-03-23T02:28:15;21.20;;;14.00;;
76795;SDS011;65745;50.278;18.192;2024-03-23T02:30:47;21.50;;;14.00;;
76795;SDS011;65745;50.278;18.192;2024-03-23T02:33:18;25.30;;;16.10;;
76795;SDS011;65745;50.278;18.192;2024-03-23T02:35:50;19.20;;;13.30;;
76795;SDS011;65745;50.278;18.192;2024-03-23T02:38:25;18.90;;;12.90;;
76795;SDS011;65745;50.278;18.192;2024-03-23T02:41:02;16.00;;;11.70;;
76795;SDS011;65745;50.278;18.192;2024-03-23T02:43:34;16.70;;;12.10;;
76795;SDS011;65745;50.278;18.192;2024-03-23T02:46:06;17.30;;;11.80;;
76795;SDS011;65745;50.278;18.192;2024-03-23T02:48:38;17.10;;;11.70;;
76795;SDS011;65745;50.278;18.192;2024-03-23T02:51:10;15.00;;;11.60;;
76795;SDS011;65745;50.278;18.192;2024-03-23T02:53:42;14.00;;;10.60;;
76795;SDS011;65745;50.278;18.192;2024-03-23T02:56:13;18.40;;;12.60;;
76795;SDS011;65745;50.278;18.192;2024-03-23T02:58:45;19.40;;;13.20;;
76795;SDS011;65745;50.278;18.192;2024-03-23T03:01:17;17.60;;;11.90;;
76795;SDS011;65745;50.278;18.192;2024-03-23T03:03:49;20.90;;;14.20;;
76795;SDS011;65745;50.278;18.192;2024-03-23T03:06:24;22.90;;;15.30;;
76795;SDS011;65745;50.278;18.192;2024-03-23T03:08:56;25.90;;;16.00;;
76795;SDS011;65745;50.278;18.192;2024-03-23T03:11:28;20.80;;;15.10;;
76795;SDS011;65745;50.278;18.192;2024-03-23T03:13:59;22.90;;;14.30;;
76795;SDS011;65745;50.278;18.192;2024-03-23T03:16:31;21.40;;;13.80;;
76795;SDS011;65745;50.278;18.192;2024-03-23T03:19:02;22.70;;;14.90;;
76795;SDS011;65745;50.278;18.192;2024-03-23T03:21:35;24.80;;;15.10;;
76795;SDS011;65745;50.278;18.192;2024-03-23T03:24:07;23.30;;;13.70;;
76795;SDS011;65745;50.278;18.192;2024-03-23T03:26:38;26.10;;;15.30;;
76795;SDS011;65745;50.278;18.192;2024-03-23T03:29:11;24.40;;;15.50;;
76795;SDS011;65745;50.278;18.192;2024-03-23T03:31:43;25.70;;;16.50;;
76795;SDS011;65745;50.278;18.192;2024-03-23T03:34:14;28.20;;;16.60;;
76795;SDS011;65745;50.278;18.192;2024-03-23T03:36:46;25.80;;;16.10;;
76795;SDS011;65745;50.278;18.192;2024-03-23T03:39:18;23.60;;;14.60;;
76795;SDS011;65745;50.278;18.192;2024-03-23T03:41:51;20.40;;;14.20;;
76795;SDS011;65745;50.278;18.192;2024-03-23T03:44:23;21.00;;;13.80;;
76795;SDS011;65745;50.278;18.192;2024-03-23T03:46:54;18.20;;;13.20;;
76795;SDS011;65745;50.278;18.192;2024-03-23T03:49:25;16.80;;;13.50;;
76795;SDS011;65745;50.278;18.192;2024-03-23T03:51:57;17.70;;;12.90;;
76795;SDS011;65745;50.278;18.192;2024-03-23T03:54:30;15.60;;;11.60;;
76795;SDS011;65745;50.278;18.192;2024-03-23T03:57:01;20.70;;;13.10;;
76795;SDS011;65745;50.278;18.192;2024-03-23T03:59:33;16.60;;;11.50;;
76795;SDS011;65745;50.278;18.192;2024-03-23T04:02:04;20.20;;;14.00;;
76795;SDS011;65745;50.278;18.192;2024-03-23T04:04:36;19.20;;;13.20;;
76795;SDS011;65745;50.278;18.192;2024-03-23T04:07:08;22.60;;;15.60;;
76795;SDS011;65745;50.278;18.192;2024-03-23T04:09:39;28.80;;;16.30;;
76795;SDS011;65745;50.278;18.192;2024-03-23T04:12:11;23.60;;;16.80;;
76795;SDS011;65745;50.278;18.192;2024-03-23T04:14:42;25.00;;;17.40;;
76795;SDS011;65745;50.278;18.192;2024-03-23T04:17:14;24.20;;;15.70;;
76795;SDS011;65745;50.278;18.192;2024-03-23T04:19:45;19.30;;;13.90;;
76795;SDS011;65745;50.278;18.192;2024-03-23T04:22:18;19.20;;;14.10;;
76795;SDS011;65745;50.278;18.192;2024-03-23T04:24:49;16.90;;;11.80;;
76795;SDS011;65745;50.278;18.192;2024-03-23T04:27:21;16.70;;;11.80;;
76795;SDS011;65745;50.278;18.192;2024-03-23T04:29:53;14.70;;;11.40;;
76795;SDS011;65745;50.278;18.192;2024-03-23T04:32:25;16.80;;;12.10;;
76795;SDS011;65745;50.278;18.192;2024-03-23T04:34:57;16.90;;;12.20;;
76795;SDS011;65745;50.278;18.192;2024-03-23T04:37:28;16.20;;;10.90;;
76795;SDS011;65745;50.278;18.192;2024-03-23T04:40:00;14.30;;;10.40;;
76795;SDS011;65745;50.278;18.192;2024-03-23T04:42:32;15.40;;;11.90;;
76795;SDS011;65745;50.278;18.192;2024-03-23T04:45:05;17.80;;;12.20;;
76795;SDS011;65745;50.278;18.192;2024-03-23T04:47:37;17.40;;;11.90;;
76795;SDS011;65745;50.278;18.192;2024-03-23T04:50:09;17.60;;;12.10;;
76795;SDS011;65745;50.278;18.192;2024-03-23T04:52:41;15.20;;;10.10;;
76795;SDS011;65745;50.278;18.192;2024-03-23T04:55:13;18.40;;;11.20;;
76795;SDS011;65745;50.278;18.192;2024-03-23T04:57:44;15.00;;;11.30;;
76795;SDS011;65745;50.278;18.192;2024-03-23T05:00:17;14.60;;;11.50;;
76795;SDS011;65745;50.278;18.192;2024-03-23T05:02:48;15.50;;;11.10;;
76795;SDS011;65745;50.278;18.192;2024-03-23T05:05:21;16.50;;;10.10;;
76795;SDS011;65745;50.278;18.192;2024-03-23T05:07:53;11.20;;;8.80;;
76795;SDS011;65745;50.278;18.192;2024-03-23T05:10:24;15.10;;;9.10;;
76795;SDS011;65745;50.278;18.192;2024-03-23T05:12:56;13.60;;;10.60;;
76795;SDS011;65745;50.278;18.192;2024-03-23T05:15:28;17.70;;;12.30;;
76795;SDS011;65745;50.278;18.192;2024-03-23T05:17:59;14.50;;;11.60;;
76795;SDS011;65745;50.278;18.192;2024-03-23T05:20:31;17.90;;;12.80;;
76795;SDS011;65745;50.278;18.192;2024-03-23T05:23:02;14.00;;;10.40;;
76795;SDS011;65745;50.278;18.192;2024-03-23T05:25:34;15.80;;;11.80;;
76795;SDS011;65745;50.278;18.192;2024-03-23T05:28:06;13.90;;;10.00;;
76795;SDS011;65745;50.278;18.192;2024-03-23T05:30:38;12.80;;;10.20;;
76795;SDS011;65745;50.278;18.192;2024-03-23T05:33:09;17.40;;;13.00;;
76795;SDS011;65745;50.278;18.192;2024-03-23T05:35:41;15.70;;;11.10;;
76795;SDS011;65745;50.278;18.192;2024-03-23T05:38:12;15.30;;;11.10;;
76795;SDS011;65745;50.278;18.192;2024-03-23T05:40:47;17.70;;;12.50;;
76795;SDS011;65745;50.278;18.192;2024-03-23T05:43:24;14.50;;;10.50;;
76795;SDS011;65745;50.278;18.192;2024-03-23T05:45:58;16.70;;;12.00;;
76795;SDS011;65745;50.278;18.192;2024-03-23T05:48:31;15.80;;;11.20;;
76795;SDS011;65745;50.278;18.192;2024-03-23T05:51:03;13.10;;;9.60;;
76795;SDS011;65745;50.278;18.192;2024-03-23T05:53:35;14.90;;;10.10;;
76795;SDS011;65745;50.278;18.192;2024-03-23T05:56:06;14.40;;;10.10;;
76795;SDS011;65745;50.278;18.192;2024-03-23T05:58:38;11.20;;;9.00;;
76795;SDS011;65745;50.278;18.192;2024-03-23T06:01:10;16.10;;;10.70;;
76795;SDS011;65745;50.278;18.192;2024-03-23T06:03:41;16.40;;;11.60;;
76795;SDS011;65745;50.278;18.192;2024-03-23T06:06:13;13.50;;;10.00;;
76795;SDS011;65745;50.278;18.192;2024-03-23T06:08:45;12.30;;;9.70;;
76795;SDS011;65745;50.278;18.192;2024-03-23T06:11:16;15.90;;;10.80;;
76795;SDS011;65745;50.278;18.192;2024-03-23T06:13:48;13.40;;;10.70;;
76795;SDS011;65745;50.278;18.192;2024-03-23T06:16:19;14.20;;;10.90;;
76795;SDS011;65745;50.278;18.192;2024-03-23T06:18:52;13.20;;;10.00;;
76795;SDS011;65745;50.278;18.192;2024-03-23T06:21:24;13.80;;;10.40;;
76795;SDS011;65745;50.278;18.192;2024-03-23T06:23:56;14.60;;;11.20;;
76795;SDS011;65745;50.278;18.192;2024-03-23T06:26:28;13.60;;;10.90;;
76795;SDS011;65745;50.278;18.192;2024-03-23T06:28:59;14.90;;;10.50;;
76795;SDS011;65745;50.278;18.192;2024-03-23T06:31:31;14.10;;;11.20;;
76795;SDS011;65745;50.278;18.192;2024-03-23T06:34:02;17.90;;;11.10;;
76795;SDS011;65745;50.278;18.192;2024-03-23T06:36:34;16.70;;;11.20;;
76795;SDS011;65745;50.278;18.192;2024-03-23T06:39:07;17.80;;;11.70;;
76795;SDS011;65745;50.278;18.192;2024-03-23T06:41:41;13.50;;;9.30;;
76795;SDS011;65745;50.278;18.192;2024-03-23T06:44:13;14.10;;;10.90;;
76795;SDS011;65745;50.278;18.192;2024-03-23T06:46:44;13.80;;;9.80;;
76795;SDS011;65745;50.278;18.192;2024-03-23T06:49:17;16.10;;;11.30;;
76795;SDS011;65745;50.278;18.192;2024-03-23T06:51:49;13.30;;;10.20;;
76795;SDS011;65745;50.278;18.192;2024-03-23T06:54:21;12.80;;;9.50;;
76795;SDS011;65745;50.278;18.192;2024-03-23T06:56:54;11.50;;;8.80;;
76795;SDS011;65745;50.278;18.192;2024-03-23T06:59:25;11.80;;;9.30;;
76795;SDS011;65745;50.278;18.192;2024-03-23T07:01:57;13.70;;;9.50;;
76795;SDS011;65745;50.278;18.192;2024-03-23T07:04:28;13.90;;;10.30;;
76795;SDS011;65745;50.278;18.192;2024-03-23T07:07:00;13.30;;;10.10;;
76795;SDS011;65745;50.278;18.192;2024-03-23T07:09:32;12.40;;;8.60;;
76795;SDS011;65745;50.278;18.192;2024-03-23T07:12:04;13.00;;;9.50;;
76795;SDS011;65745;50.278;18.192;2024-03-23T07:14:36;12.80;;;9.90;;
76795;SDS011;65745;50.278;18.192;2024-03-23T07:17:08;9.60;;;7.50;;
76795;SDS011;65745;50.278;18.192;2024-03-23T07:19:40;12.60;;;8.90;;
76795;SDS011;65745;50.278;18.192;2024-03-23T07:22:11;10.70;;;8.40;;
76795;SDS011;65745;50.278;18.192;2024-03-23T07:24:43;11.60;;;8.50;;
76795;SDS011;65745;50.278;18.192;2024-03-23T07:27:15;9.30;;;7.50;;
76795;SDS011;65745;50.278;18.192;2024-03-23T07:29:46;12.70;;;8.60;;
76795;SDS011;65745;50.278;18.192;2024-03-23T07:32:18;11.10;;;8.20;;
76795;SDS011;65745;50.278;18.192;2024-03-23T07:34:50;10.80;;;8.60;;
76795;SDS011;65745;50.278;18.192;2024-03-23T07:37:21;10.50;;;7.70;;
76795;SDS011;65745;50.278;18.192;2024-03-23T07:39:55;10.90;;;7.90;;
76795;SDS011;65745;50.278;18.192;2024-03-23T07:42:28;11.20;;;7.80;;
76795;SDS011;65745;50.278;18.192;2024-03-23T07:45:00;11.50;;;7.90;;
76795;SDS011;65745;50.278;18.192;2024-03-23T07:47:36;13.40;;;8.30;;
76795;SDS011;65745;50.278;18.192;2024-03-23T07:50:08;8.90;;;7.80;;
76795;SDS011;65745;50.278;18.192;2024-03-23T07:52:40;10.70;;;7.30;;
76795;SDS011;65745;50.278;18.192;2024-03-23T07:55:12;9.50;;;7.10;;
76795;SDS011;65745;50.278;18.192;2024-03-23T07:57:43;12.00;;;8.10;;
76795;SDS011;65745;50.278;18.192;2024-03-23T08:00:15;10.80;;;7.70;;
76795;SDS011;65745;50.278;18.192;2024-03-23T08:02:47;9.00;;;6.90;;
76795;SDS011;65745;50.278;18.192;2024-03-23T08:05:22;10.00;;;7.10;;
76795;SDS011;65745;50.278;18.192;2024-03-23T08:07:55;8.30;;;6.80;;
76795;SDS011;65745;50.278;18.192;2024-03-23T08:10:27;11.30;;;7.90;;
76795;SDS011;65745;50.278;18.192;2024-03-23T08:12:59;8.20;;;6.90;;
76795;SDS011;65745;50.278;18.192;2024-03-23T08:15:31;10.50;;;7.20;;
76795;SDS011;65745;50.278;18.192;2024-03-23T08:18:03;9.60;;;7.70;;
76795;SDS011;65745;50.278;18.192;2024-03-23T08:20:35;8.90;;;6.90;;
76795;SDS011;65745;50.278;18.192;2024-03-23T08:23:07;9.20;;;6.80;;
76795;SDS011;65745;50.278;18.192;2024-03-23T08:25:38;11.20;;;7.80;;
76795;SDS011;65745;50.278;18.192;2024-03-23T08:28:10;11.20;;;8.10;;
76795;SDS011;65745;50.278;18.192;2024-03-23T08:30:41;10.00;;;7.10;;
76795;SDS011;65745;50.278;18.192;2024-03-23T08:33:13;8.40;;;7.20;;
76795;SDS011;65745;50.278;18.192;2024-03-23T08:35:53;9.70;;;6.90;;
76795;SDS011;65745;50.278;18.192;2024-03-23T08:38:25;9.90;;;7.10;;
76795;SDS011;65745;50.278;18.192;2024-03-23T08:40:58;9.00;;;6.50;;
76795;SDS011;65745;50.278;18.192;2024-03-23T08:43:31;8.70;;;7.20;;
76795;SDS011;65745;50.278;18.192;2024-03-23T08:46:06;8.70;;;6.00;;
76795;SDS011;65745;50.278;18.192;2024-03-23T08:48:39;7.30;;;6.00;;
76795;SDS011;65745;50.278;18.192;2024-03-23T08:51:13;9.60;;;7.00;;
76795;SDS011;65745;50.278;18.192;2024-03-23T08:53:45;9.40;;;6.40;;
76795;SDS011;65745;50.278;18.192;2024-03-23T08:56:17;10.00;;;7.60;;
76795;SDS011;65745;50.278;18.192;2024-03-23T08:58:48;9.70;;;7.10;;
76795;SDS011;65745;50.278;18.192;2024-03-23T09:01:20;9.10;;;7.20;;
76795;SDS011;65745;50.278;18.192;2024-03-23T09:03:51;9.10;;;6.80;;
76795;SDS011;65745;50.278;18.192;2024-03-23T09:06:23;9.10;;;6.70;;
76795;SDS011;65745;50.278;18.192;2024-03-23T09:08:54;9.70;;;7.00;;
76795;SDS011;65745;50.278;18.192;2024-03-23T09:11:26;9.50;;;7.60;;
76795;SDS011;65745;50.278;18.192;2024-03-23T09:13:57;9.60;;;6.90;;
76795;SDS011;65745;50.278;18.192;2024-03-23T09:16:29;8.90;;;7.10;;
76795;SDS011;65745;50.278;18.192;2024-03-23T09:19:01;8.40;;;6.20;;
76795;SDS011;65745;50.278;18.192;2024-03-23T09:21:32;8.60;;;6.20;;
76795;SDS011;65745;50.278;18.192;2024-03-23T09:24:04;8.80;;;6.20;;
76795;SDS011;65745;50.278;18.192;2024-03-23T09:26:37;10.50;;;7.20;;
76795;SDS011;65745;50.278;18.192;2024-03-23T09:29:08;9.30;;;6.00;;
76795;SDS011;65745;50.278;18.192;2024-03-23T09:31:40;7.50;;;5.40;;
76795;SDS011;65745;50.278;18.192;2024-03-23T09:34:12;9.30;;;6.50;;
76795;SDS011;65745;50.278;18.192;2024-03-23T09:36:44;10.10;;;7.50;;
76795;SDS011;65745;50.278;18.192;2024-03-23T09:39:16;8.60;;;6.60;;
76795;SDS011;65745;50.278;18.192;2024-03-23T09:41:50;9.80;;;7.00;;
76795;SDS011;65745;50.278;18.192;2024-03-23T09:44:27;10.80;;;6.80;;
76795;SDS011;65745;50.278;18.192;2024-03-23T09:47:00;10.10;;;7.70;;
76795;SDS011;65745;50.278;18.192;2024-03-23T09:49:32;8.90;;;7.20;;
76795;SDS011;65745;50.278;18.192;2024-03-23T09:52:05;8.00;;;6.10;;
76795;SDS011;65745;50.278;18.192;2024-03-23T09:54:37;9.00;;;6.90;;
76795;SDS011;65745;50.278;18.192;2024-03-23T09:57:09;9.30;;;6.70;;
76795;SDS011;65745;50.278;18.192;2024-03-23T09:59:40;9.00;;;7.00;;
76795;SDS011;65745;50.278;18.192;2024-03-23T10:02:12;9.20;;;6.90;;
76795;SDS011;65745;50.278;18.192;2024-03-23T10:04:46;9.10;;;6.90;;
76795;SDS011;65745;50.278;18.192;2024-03-23T10:07:18;7.90;;;6.40;;
76795;SDS011;65745;50.278;18.192;2024-03-23T10:09:50;10.00;;;6.90;;
76795;SDS011;65745;50.278;18.192;2024-03-23T10:12:22;8.40;;;6.50;;
76795;SDS011;65745;50.278;18.192;2024-03-23T10:14:54;9.00;;;7.70;;
76795;SDS011;65745;50.278;18.192;2024-03-23T10:17:26;8.00;;;6.40;;
76795;SDS011;65745;50.278;18.192;2024-03-23T10:19:57;7.80;;;6.60;;
76795;SDS011;65745;50.278;18.192;2024-03-23T10:22:30;10.20;;;7.80;;
76795;SDS011;65745;50.278;18.192;2024-03-23T10:25:08;7.90;;;5.70;;
76795;SDS011;65745;50.278;18.192;2024-03-23T10:27:42;8.10;;;6.30;;
76795;SDS011;65745;50.278;18.192;2024-03-23T10:30:26;9.00;;;7.00;;
76795;SDS011;65745;50.278;18.192;2024-03-23T10:33:07;8.90;;;7.10;;
76795;SDS011;65745;50.278;18.192;2024-03-23T10:35:40;8.10;;;6.10;;
76795;SDS011;65745;50.278;18.192;2024-03-23T10:38:12;8.10;;;6.70;;
76795;SDS011;65745;50.278;18.192;2024-03-23T10:40:44;6.70;;;5.70;;
76795;SDS011;65745;50.278;18.192;2024-03-23T10:43:16;7.50;;;6.30;;
76795;SDS011;65745;50.278;18.192;2024-03-23T10:45:47;9.20;;;6.20;;
76795;SDS011;65745;50.278;18.192;2024-03-23T10:48:20;7.70;;;5.70;;
76795;SDS011;65745;50.278;18.192;2024-03-23T10:50:53;7.80;;;5.90;;
76795;SDS011;65745;50.278;18.192;2024-03-23T10:53:26;8.70;;;5.20;;
76795;SDS011;65745;50.278;18.192;2024-03-23T10:55:58;6.70;;;5.60;;
76795;SDS011;65745;50.278;18.192;2024-03-23T10:58:31;7.70;;;5.30;;
76795;SDS011;65745;50.278;18.192;2024-03-23T11:01:12;6.10;;;5.30;;
76795;SDS011;65745;50.278;18.192;2024-03-23T11:03:45;7.00;;;5.40;;
76795;SDS011;65745;50.278;18.192;2024-03-23T11:09:09;6.00;;;5.40;;
76795;SDS011;65745;50.278;18.192;2024-03-23T11:12:23;7.30;;;4.70;;
76795;SDS011;65745;50.278;18.192;2024-03-23T11:14:57;6.30;;;5.10;;
76795;SDS011;65745;50.278;18.192;2024-03-23T11:17:31;8.10;;;4.70;;
76795;SDS011;65745;50.278;18.192;2024-03-23T11:20:03;5.50;;;4.30;;
76795;SDS011;65745;50.278;18.192;2024-03-23T11:22:41;5.80;;;4.30;;
76795;SDS011;65745;50.278;18.192;2024-03-23T11:25:16;4.90;;;4.00;;
76795;SDS011;65745;50.278;18.192;2024-03-23T11:27:50;5.10;;;4.60;;
76795;SDS011;65745;50.278;18.192;2024-03-23T11:30:23;6.80;;;6.20;;
76795;SDS011;65745;50.278;18.192;2024-03-23T11:32:57;4.50;;;4.00;;
76795;SDS011;65745;50.278;18.192;2024-03-23T11:35:29;6.70;;;4.70;;
76795;SDS011;65745;50.278;18.192;2024-03-23T11:38:06;5.60;;;3.90;;
76795;SDS011;65745;50.278;18.192;2024-03-23T11:40:38;4.80;;;4.30;;
76795;SDS011;65745;50.278;18.192;2024-03-23T11:43:12;11.70;;;11.00;;
76795;SDS011;65745;50.278;18.192;2024-03-23T11:45:44;5.90;;;4.20;;
76795;SDS011;65745;50.278;18.192;2024-03-23T11:48:18;6.70;;;5.20;;
76795;SDS011;65745;50.278;18.192;2024-03-23T11:50:54;4.30;;;3.20;;
76795;SDS011;65745;50.278;18.192;2024-03-23T11:53:26;4.10;;;3.30;;
76795;SDS011;65745;50.278;18.192;2024-03-23T11:55:59;5.90;;;4.10;;
76795;SDS011;65745;50.278;18.192;2024-03-23T11:58:31;4.10;;;3.70;;
76795;SDS011;65745;50.278;18.192;2024-03-23T12:01:04;5.80;;;4.00;;
76795;SDS011;65745;50.278;18.192;2024-03-23T12:03:43;6.80;;;4.90;;
76795;SDS011;65745;50.278;18.192;2024-03-23T12:06:19;4.30;;;3.40;;
76795;SDS011;65745;50.278;18.192;2024-03-23T12:08:50;3.90;;;3.50;;
76795;SDS011;65745;50.278;18.192;2024-03-23T12:11:22;4.30;;;3.50;;
76795;SDS011;65745;50.278;18.192;2024-03-23T12:13:55;5.00;;;3.80;;
76795;SDS011;65745;50.278;18.192;2024-03-23T12:16:31;4.20;;;2.90;;
76795;SDS011;65745;50.278;18.192;2024-03-23T12:19:05;4.30;;;3.40;;
76795;SDS011;65745;50.278;18.192;2024-03-23T12:21:37;5.80;;;3.40;;
76795;SDS011;65745;50.278;18.192;2024-03-23T12:24:09;4.90;;;3.20;;
76795;SDS011;65745;50.278;18.192;2024-03-23T12:26:40;4.60;;;3.30;;
76795;SDS011;65745;50.278;18.192;2024-03-23T12:29:15;5.30;;;3.60;;
76795;SDS011;65745;50.278;18.192;2024-03-23T12:31:47;6.70;;;3.20;;
76795;SDS011;65745;50.278;18.192;2024-03-23T12:34:19;3.90;;;3.30;;
76795;SDS011;65745;50.278;18.192;2024-03-23T12:36:50;4.50;;;3.20;;
76795;SDS011;65745;50.278;18.192;2024-03-23T12:39:22;3.90;;;3.40;;
76795;SDS011;65745;50.278;18.192;2024-03-23T12:41:54;3.60;;;3.00;;
76795;SDS011;65745;50.278;18.192;2024-03-23T12:44:26;6.10;;;3.60;;
76795;SDS011;65745;50.278;18.192;2024-03-23T12:46:57;5.30;;;3.30;;
76795;SDS011;65745;50.278;18.192;2024-03-23T12:49:29;7.40;;;5.00;;
76795;SDS011;65745;50.278;18.192;2024-03-23T12:52:01;7.50;;;4.40;;
76795;SDS011;65745;50.278;18.192;2024-03-23T12:54:33;6.50;;;4.40;;
76795;SDS011;65745;50.278;18.192;2024-03-23T12:57:05;5.80;;;5.00;;
76795;SDS011;65745;50.278;18.192;2024-03-23T12:59:37;5.80;;;4.70;;
76795;SDS011;65745;50.278;18.192;2024-03-23T13:02:09;8.40;;;5.50;;
76795;SDS011;65745;50.278;18.192;2024-03-23T13:04:43;3.60;;;2.40;;
76795;SDS011;65745;50.278;18.192;2024-03-23T13:07:15;3.30;;;1.90;;
76795;SDS011;65745;50.278;18.192;2024-03-23T13:09:46;4.10;;;2.10;;
76795;SDS011;65745;50.278;18.192;2024-03-23T13:12:19;4.20;;;2.10;;
76795;SDS011;65745;50.278;18.192;2024-03-23T13:14:51;2.70;;;2.00;;
76795;SDS011;65745;50.278;18.192;2024-03-23T13:17:22;3.40;;;2.00;;
76795;SDS011;65745;50.278;18.192;2024-03-23T13:19:55;3.50;;;2.10;;
76795;SDS011;65745;50.278;18.192;2024-03-23T13:22:27;5.00;;;2.30;;
76795;SDS011;65745;50.278;18.192;2024-03-23T13:24:59;5.10;;;3.60;;
76795;SDS011;65745;50.278;18.192;2024-03-23T13:27:31;6.00;;;2.90;;
76795;SDS011;65745;50.278;18.192;2024-03-23T13:30:02;3.20;;;2.50;;
76795;SDS011;65745;50.278;18.192;2024-03-23T13:32:36;3.40;;;2.10;;
76795;SDS011;65745;50.278;18.192;2024-03-23T13:35:08;2.80;;;1.80;;
76795;SDS011;65745;50.278;18.192;2024-03-23T13:37:39;2.90;;;1.80;;
76795;SDS011;65745;50.278;18.192;2024-03-23T13:40:12;1.90;;;1.50;;
76795;SDS011;65745;50.278;18.192;2024-03-23T13:42:43;2.80;;;1.40;;
76795;SDS011;65745;50.278;18.192;2024-03-23T13:45:15;3.90;;;1.50;;
76795;SDS011;65745;50.278;18.192;2024-03-23T13:47:47;3.20;;;2.00;;
76795;SDS011;65745;50.278;18.192;2024-03-23T13:50:18;1.50;;;1.30;;
76795;SDS011;65745;50.278;18.192;2024-03-23T13:52:50;1.70;;;1.40;;
76795;SDS011;65745;50.278;18.192;2024-03-23T13:55:22;3.70;;;1.60;;
76795;SDS011;65745;50.278;18.192;2024-03-23T13:57:53;3.40;;;1.70;;
76795;SDS011;65745;50.278;18.192;2024-03-23T14:00:25;2.30;;;1.50;;
76795;SDS011;65745;50.278;18.192;2024-03-23T14:02:57;3.80;;;1.70;;
76795;SDS011;65745;50.278;18.192;2024-03-23T14:05:28;2.30;;;1.80;;
76795;SDS011;65745;50.278;18.192;2024-03-23T14:08:00;2.90;;;2.00;;
76795;SDS011;65745;50.278;18.192;2024-03-23T14:10:31;2.50;;;2.00;;
76795;SDS011;65745;50.278;18.192;2024-03-23T14:13:04;2.50;;;2.00;;
76795;SDS011;65745;50.278;18.192;2024-03-23T14:15:36;2.30;;;1.80;;
76795;SDS011;65745;50.278;18.192;2024-03-23T14:18:08;1.80;;;1.50;;
76795;SDS011;65745;50.278;18.192;2024-03-23T14:20:39;2.80;;;1.80;;
76795;SDS011;65745;50.278;18.192;2024-03-23T14:23:11;2.90;;;2.50;;
76795;SDS011;65745;50.278;18.192;2024-03-23T14:25:42;2.50;;;1.90;;
76795;SDS011;65745;50.278;18.192;2024-03-23T14:28:14;6.90;;;4.30;;
76795;SDS011;65745;50.278;18.192;2024-03-23T14:30:45;10.20;;;6.20;;
76795;SDS011;65745;50.278;18.192;2024-03-23T14:33:17;5.30;;;3.70;;
76795;SDS011;65745;50.278;18.192;2024-03-23T14:35:52;4.00;;;2.40;;
76795;SDS011;65745;50.278;18.192;2024-03-23T14:38:25;2.80;;;2.20;;
76795;SDS011;65745;50.278;18.192;2024-03-23T14:40:58;3.70;;;2.10;;
76795;SDS011;65745;50.278;18.192;2024-03-23T14:43:31;3.80;;;2.30;;
76795;SDS011;65745;50.278;18.192;2024-03-23T14:46:07;4.20;;;2.80;;
76795;SDS011;65745;50.278;18.192;2024-03-23T14:48:40;8.20;;;4.70;;
76795;SDS011;65745;50.278;18.192;2024-03-23T14:51:13;8.60;;;5.50;;
76795;SDS011;65745;50.278;18.192;2024-03-23T14:53:46;7.20;;;4.70;;
76795;SDS011;65745;50.278;18.192;2024-03-23T14:56:17;7.40;;;4.50;;
76795;SDS011;65745;50.278;18.192;2024-03-23T14:58:51;9.60;;;4.60;;
76795;SDS011;65745;50.278;18.192;2024-03-23T15:01:24;6.10;;;4.10;;
76795;SDS011;65745;50.278;18.192;2024-03-23T15:03:56;5.30;;;4.10;;
76795;SDS011;65745;50.278;18.192;2024-03-23T15:06:28;6.20;;;4.20;;
76795;SDS011;65745;50.278;18.192;2024-03-23T15:09:00;6.10;;;4.60;;
76795;SDS011;65745;50.278;18.192;2024-03-23T15:11:35;8.00;;;5.30;;
76795;SDS011;65745;50.278;18.192;2024-03-23T15:14:07;5.70;;;4.60;;
76795;SDS011;65745;50.278;18.192;2024-03-23T15:16:39;6.90;;;5.20;;
76795;SDS011;65745;50.278;18.192;2024-03-23T15:19:11;6.00;;;5.00;;
76795;SDS011;65745;50.278;18.192;2024-03-23T15:21:44;8.70;;;6.10;;
76795;SDS011;65745;50.278;18.192;2024-03-23T15:24:15;10.50;;;6.30;;
76795;SDS011;65745;50.278;18.192;2024-03-23T15:26:47;8.90;;;6.10;;
76795;SDS011;65745;50.278;18.192;2024-03-23T15:29:21;8.20;;;6.00;;
76795;SDS011;65745;50.278;18.192;2024-03-23T15:31:53;9.90;;;6.50;;
76795;SDS011;65745;50.278;18.192;2024-03-23T15:34:25;11.20;;;7.40;;
76795;SDS011;65745;50.278;18.192;2024-03-23T15:36:58;8.50;;;6.20;;
76795;SDS011;65745;50.278;18.192;2024-03-23T15:39:30;9.50;;;7.00;;
76795;SDS011;65745;50.278;18.192;2024-03-23T15:42:04;9.40;;;7.00;;
76795;SDS011;65745;50.278;18.192;2024-03-23T15:44:36;11.20;;;8.50;;
76795;SDS011;65745;50.278;18.192;2024-03-23T15:47:07;7.90;;;5.10;;